Time;durP1;ratioP1;P1;durP2;ratioP2;P2;SDS_P1;SDS_P2;PMS_P1;PMS_P2;Temp;Humidity;BMP_temperature;BMP_pressure;BME280_temperature;BME280_humidity;BME280_pressure;Samples;Min_cycle;Max_cycle;Signal;HPM_P1;HPM_P2
2023/04/01 00:00:26;;;;;;;4.30;3.90;;;;;;;;;;6265031;28;20182;-56
2023/04/01 00:03:28;;;;;;;4.87;3.87;;;;;;;;;;6227123;28;20217;-54
2023/04/01 00:06:30;;;;;;;7.73;5.73;;;;;;;;;;6225362;28;20219;-54
2023/04/01 00:09:31;;;;;;;5.97;4.97;;;;;;;;;;6228022;28;20207;-53
2023/04/01 00:12:32;;;;;;;5.13;4.70;;;;;;;;;;6253481;28;20244;-56
2023/04/01 00:15:34;;;;;;;4.30;3.73;;;;;;;;;;6231696;28;20218;-55
2023/04/01 00:18:35;;;;;;;5.83;4.13;;;;;;;;;;6235991;28;20190;-55
2023/04/01 00:21:36;;;;;;;4.30;3.90;;;;;;;;;;6261050;28;20194;-55
2023/04/01 00:24:38;;;;;;;4.20;3.80;;;;;;;;;;6224724;28;20206;-53
2023/04/01 00:27:39;;;;;;;4.13;3.33;;;;;;;;;;6243994;28;20240;-55
2023/04/01 00:30:40;;;;;;;4.60;4.13;;;;;;;;;;6260666;28;20205;-54
2023/04/01 00:33:41;;;;;;;4.53;3.37;;;;;;;;;;6218628;28;20242;-55
2023/04/01 00:36:42;;;;;;;6.77;4.30;;;;;;;;;;6220296;28;20221;-55
2023/04/01 00:39:44;;;;;;;4.37;4.00;;;;;;;;;;6224912;28;20194;-53
2023/04/01 00:42:45;;;;;;;4.63;4.10;;;;;;;;;;6253938;28;20194;-56
2023/04/01 00:45:47;;;;;;;3.90;3.60;;;;;;;;;;6258190;28;20198;-54
2023/04/01 00:48:50;;;;;;;4.57;3.50;;;;;;;;;;6246833;28;20182;-51
2023/04/01 00:51:53;;;;;;;3.97;3.67;;;;;;;;;;6244930;28;20199;-57
2023/04/01 00:54:58;;;;;;;4.13;3.73;;;;;;;;;;6246810;28;20207;-55
2023/04/01 00:57:59;;;;;;;4.83;4.33;;;;;;;;;;6244412;28;20288;-54
2023/04/01 01:01:01;;;;;;;4.37;3.97;;;;;;;;;;6251806;28;20198;-55
2023/04/01 01:04:02;;;;;;;4.00;3.70;;;;;;;;;;6243184;28;20190;-53
2023/04/01 01:07:18;;;;;;;3.13;2.83;;;;;;;;;;6234311;28;20191;-53
2023/04/01 01:10:30;;;;;;;3.70;3.40;;;;;;;;;;6246027;28;20299;-53
2023/04/01 01:13:36;;;;;;;3.60;3.30;;;;;;;;;;6243402;28;20191;-54
2023/04/01 01:16:43;;;;;;;4.00;3.70;;;;;;;;;;6251583;28;20211;-55
2023/04/01 01:19:48;;;;;;;3.53;3.23;;;;;;;;;;6245393;28;20278;-55
2023/04/01 01:22:52;;;;;;;4.00;3.50;;;;;;;;;;6242355;28;20191;-53
2023/04/01 01:25:56;;;;;;;3.90;3.43;;;;;;;;;;6251954;28;20264;-55
2023/04/01 01:28:57;;;;;;;3.53;3.20;;;;;;;;;;6267031;28;20199;-54
2023/04/01 01:32:17;;;;;;;3.33;2.90;;;;;;;;;;6248206;28;20236;-53
2023/04/01 01:35:33;;;;;;;3.70;3.40;;;;;;;;;;6252198;28;20306;-50
2023/04/01 01:38:35;;;;;;;3.63;3.10;;;;;;;;;;6248484;28;20184;-53
2023/04/01 01:41:38;;;;;;;3.47;3.17;;;;;;;;;;6240848;28;20346;-53
2023/04/01 01:44:41;;;;;;;4.03;3.73;;;;;;;;;;6240009;28;20206;-53
2023/04/01 01:47:43;;;;;;;3.90;3.53;;;;;;;;;;6251386;28;20201;-55
2023/04/01 01:50:45;;;;;;;3.83;3.43;;;;;;;;;;6254389;28;20206;-55
2023/04/01 01:53:46;;;;;;;3.10;2.80;;;;;;;;;;6264016;28;20194;-55
2023/04/01 01:56:49;;;;;;;3.67;3.27;;;;;;;;;;6264754;28;20213;-53
2023/04/01 01:59:52;;;;;;;3.60;3.30;;;;;;;;;;6247350;28;20183;-54
2023/04/01 02:02:54;;;;;;;4.03;3.70;;;;;;;;;;6241794;28;20286;-54
2023/04/01 02:05:56;;;;;;;4.10;3.70;;;;;;;;;;6242928;28;20194;-54
2023/04/01 02:09:01;;;;;;;4.87;3.60;;;;;;;;;;6255399;28;20209;-52
2023/04/01 02:12:04;;;;;;;4.20;3.80;;;;;;;;;;6267227;28;20225;-53
2023/04/01 02:15:08;;;;;;;3.67;3.13;;;;;;;;;;6266027;28;20218;-53
2023/04/01 02:18:10;;;;;;;3.87;3.57;;;;;;;;;;6242217;28;20191;-54
2023/04/01 02:21:12;;;;;;;3.83;3.40;;;;;;;;;;6232787;28;20193;-56
2023/04/01 02:24:15;;;;;;;3.40;3.10;;;;;;;;;;6247289;28;20266;-56
2023/04/01 02:27:16;;;;;;;3.53;3.23;;;;;;;;;;6250520;28;20218;-54
2023/04/01 02:30:17;;;;;;;3.40;3.10;;;;;;;;;;6227719;28;20206;-52
2023/04/01 02:33:20;;;;;;;3.17;2.90;;;;;;;;;;6233453;28;20245;-54
2023/04/01 02:36:21;;;;;;;3.00;2.70;;;;;;;;;;6265273;28;20213;-55
2023/04/01 02:39:22;;;;;;;3.63;3.33;;;;;;;;;;6249741;28;20202;-56
2023/04/01 02:42:23;;;;;;;2.90;2.70;;;;;;;;;;6249983;28;20183;-56
2023/04/01 02:45:24;;;;;;;4.17;3.77;;;;;;;;;;6229280;28;20197;-55
2023/04/01 02:48:25;;;;;;;4.93;3.47;;;;;;;;;;6231540;28;20190;-53
2023/04/01 02:51:26;;;;;;;3.70;3.40;;;;;;;;;;6242037;28;20186;-56
2023/04/01 02:54:27;;;;;;;3.50;3.20;;;;;;;;;;6250227;28;20218;-55
2023/04/01 02:57:29;;;;;;;3.63;3.33;;;;;;;;;;6263316;28;20193;-57
2023/04/01 03:00:30;;;;;;;4.00;2.67;;;;;;;;;;6232582;28;20199;-56
2023/04/01 03:03:31;;;;;;;3.33;3.03;;;;;;;;;;6241555;28;20350;-51
2023/04/01 03:06:32;;;;;;;2.83;2.60;;;;;;;;;;6245724;28;20286;-56
2023/04/01 03:09:33;;;;;;;3.37;3.07;;;;;;;;;;6218736;28;20195;-53
2023/04/01 03:12:34;;;;;;;3.40;3.10;;;;;;;;;;6249926;28;20194;-51
2023/04/01 03:15:35;;;;;;;2.83;2.63;;;;;;;;;;6224989;28;20204;-55
2023/04/01 03:18:37;;;;;;;4.03;3.60;;;;;;;;;;6254721;28;20191;-54
2023/04/01 03:21:38;;;;;;;3.50;2.80;;;;;;;;;;6227376;28;20221;-55
2023/04/01 03:24:39;;;;;;;3.33;3.03;;;;;;;;;;6248942;28;20194;-55
2023/04/01 03:27:40;;;;;;;2.87;2.67;;;;;;;;;;6252109;28;20203;-53
2023/04/01 03:30:41;;;;;;;2.90;2.60;;;;;;;;;;6264506;28;20199;-56
2023/04/01 03:33:43;;;;;;;3.00;2.37;;;;;;;;;;6224485;28;20247;-56
2023/04/01 03:36:44;;;;;;;3.03;2.80;;;;;;;;;;6241948;28;20218;-56
2023/04/01 03:39:45;;;;;;;2.77;2.57;;;;;;;;;;6224349;28;20229;-55
2023/04/01 03:42:46;;;;;;;2.87;2.63;;;;;;;;;;6241304;28;20658;-53
2023/04/01 03:45:48;;;;;;;3.77;2.77;;;;;;;;;;6231839;28;20285;-54
2023/04/01 03:48:49;;;;;;;2.73;2.50;;;;;;;;;;6264496;28;20199;-54
2023/04/01 03:51:50;;;;;;;3.80;2.90;;;;;;;;;;6248661;28;20265;-57
2023/04/01 03:54:51;;;;;;;2.90;2.20;;;;;;;;;;6260669;28;20210;-56
2023/04/01 03:57:52;;;;;;;2.63;2.43;;;;;;;;;;6229314;28;20205;-55
2023/04/01 04:00:53;;;;;;;2.93;2.70;;;;;;;;;;6231342;28;20194;-56
2023/04/01 04:03:54;;;;;;;2.80;2.47;;;;;;;;;;6236436;28;20244;-53
2023/04/01 04:06:55;;;;;;;3.03;2.83;;;;;;;;;;6248425;28;20193;-54
2023/04/01 04:09:56;;;;;;;3.07;2.77;;;;;;;;;;6232154;28;20217;-54
2023/04/01 04:12:57;;;;;;;3.70;2.73;;;;;;;;;;6264688;28;20189;-55
2023/04/01 04:15:59;;;;;;;4.20;3.83;;;;;;;;;;6244720;28;20207;-54
2023/04/01 04:19:00;;;;;;;5.07;3.00;;;;;;;;;;6240644;28;20194;-53
2023/04/01 04:22:01;;;;;;;3.33;3.03;;;;;;;;;;6218939;28;20186;-53
2023/04/01 04:25:02;;;;;;;2.90;2.70;;;;;;;;;;6251472;28;20209;-54
2023/04/01 04:28:03;;;;;;;4.50;3.43;;;;;;;;;;6262465;28;20201;-53
2023/04/01 04:31:05;;;;;;;2.90;2.70;;;;;;;;;;6250027;28;20201;-55
2023/04/01 04:34:06;;;;;;;2.57;2.33;;;;;;;;;;6241779;28;20262;-52
2023/04/01 04:37:07;;;;;;;2.40;2.20;;;;;;;;;;6220419;28;20297;-55
2023/04/01 04:40:08;;;;;;;3.83;2.90;;;;;;;;;;6223443;28;20282;-53
2023/04/01 04:43:13;;;;;;;3.27;2.97;;;;;;;;;;6250916;28;20190;-54
2023/04/01 04:46:14;;;;;;;3.37;2.67;;;;;;;;;;6236109;28;20225;-55
2023/04/01 04:49:15;;;;;;;2.73;2.53;;;;;;;;;;6264669;28;20195;-54
2023/04/01 04:52:16;;;;;;;2.80;2.60;;;;;;;;;;6251275;28;20189;-55
2023/04/01 04:55:18;;;;;;;3.30;2.57;;;;;;;;;;6264823;28;20216;-52
2023/04/01 04:58:19;;;;;;;4.03;2.77;;;;;;;;;;6285136;28;20193;-53
2023/04/01 05:01:20;;;;;;;4.07;3.37;;;;;;;;;;6266124;28;20196;-54
2023/04/01 05:04:21;;;;;;;3.13;2.87;;;;;;;;;;6225371;28;20221;-56
2023/04/01 05:07:22;;;;;;;3.60;2.87;;;;;;;;;;6236226;28;20265;-56
2023/04/01 05:10:23;;;;;;;4.53;2.83;;;;;;;;;;6229656;28;20233;-54
2023/04/01 05:13:24;;;;;;;3.10;2.87;;;;;;;;;;6267356;28;20312;-55
2023/04/01 05:16:26;;;;;;;3.40;2.63;;;;;;;;;;6267996;28;20217;-54
2023/04/01 05:19:27;;;;;;;4.00;3.27;;;;;;;;;;6257991;28;20274;-56
2023/04/01 05:22:28;;;;;;;3.13;2.70;;;;;;;;;;6263676;28;20289;-56
2023/04/01 05:25:29;;;;;;;3.77;2.77;;;;;;;;;;6235215;28;20264;-54
2023/04/01 05:28:30;;;;;;;2.50;2.30;;;;;;;;;;6251666;28;20197;-54
2023/04/01 05:31:31;;;;;;;4.47;2.93;;;;;;;;;;6267778;28;20245;-55
2023/04/01 05:34:32;;;;;;;2.70;2.50;;;;;;;;;;6260510;28;20213;-56
2023/04/01 05:37:37;;;;;;;2.87;2.67;;;;;;;;;;6246416;28;20198;-56
2023/04/01 05:40:38;;;;;;;3.93;2.93;;;;;;;;;;6256041;28;20190;-53
2023/04/01 05:43:39;;;;;;;2.90;2.60;;;;;;;;;;6230259;28;20308;-53
2023/04/01 05:46:41;;;;;;;3.57;3.00;;;;;;;;;;6231788;28;20203;-54
2023/04/01 05:49:42;;;;;;;3.03;2.73;;;;;;;;;;6250089;28;20208;-54
2023/04/01 05:52:44;;;;;;;3.03;2.80;;;;;;;;;;6230473;28;20260;-54
2023/04/01 05:55:45;;;;;;;3.10;2.80;;;;;;;;;;6234406;28;20309;-56
2023/04/01 05:58:50;;;;;;;3.20;2.67;;;;;;;;;;6261026;28;20190;-56
2023/04/01 06:01:52;;;;;;;3.30;3.00;;;;;;;;;;6254691;28;20186;-53
2023/04/01 06:05:22;;;;;;;4.83;3.43;;;;;;;;;;6229751;28;20429;-52
2023/04/01 06:08:24;;;;;;;5.13;3.43;;;;;;;;;;6216963;28;20286;-56
2023/04/01 06:11:45;;;;;;;3.20;2.90;;;;;;;;;;6240022;28;20179;-54
2023/04/01 06:15:01;;;;;;;3.13;2.83;;;;;;;;;;6259350;28;20219;-55
2023/04/01 06:18:11;;;;;;;3.20;2.90;;;;;;;;;;6250531;28;20191;-53
2023/04/01 06:21:31;;;;;;;4.33;2.80;;;;;;;;;;6246083;28;20222;-56
2023/04/01 06:24:41;;;;;;;3.10;2.80;;;;;;;;;;6246904;28;20184;-56
2023/04/01 06:27:54;;;;;;;5.00;3.43;;;;;;;;;;6254571;28;20191;-56
2023/04/01 06:30:58;;;;;;;3.33;3.03;;;;;;;;;;6278812;28;20191;-54
2023/04/01 06:34:18;;;;;;;2.93;2.63;;;;;;;;;;6258093;28;20207;-55
2023/04/01 06:37:28;;;;;;;3.07;2.50;;;;;;;;;;6245229;28;20218;-55
2023/04/01 06:40:35;;;;;;;3.10;2.80;;;;;;;;;;6236502;28;20195;-55
2023/04/01 06:43:57;;;;;;;3.30;3.00;;;;;;;;;;6249538;28;20190;-53
2023/04/01 06:47:02;;;;;;;2.93;2.60;;;;;;;;;;6243233;28;20195;-57
2023/04/01 06:50:10;;;;;;;3.03;2.83;;;;;;;;;;6265525;28;20219;-58
2023/04/01 06:53:16;;;;;;;4.53;2.83;;;;;;;;;;6245452;28;20198;-58
2023/04/01 06:56:19;;;;;;;2.63;2.43;;;;;;;;;;6245580;28;20207;-58
2023/04/01 06:59:22;;;;;;;2.67;2.47;;;;;;;;;;6237514;28;20199;-58
2023/04/01 07:02:31;;;;;;;3.07;2.80;;;;;;;;;;6248781;28;20190;-57
2023/04/01 07:05:34;;;;;;;2.60;2.40;;;;;;;;;;6260913;28;20198;-57
2023/04/01 07:08:38;;;;;;;4.83;2.30;;;;;;;;;;6243319;28;20182;-57
2023/04/01 07:11:40;;;;;;;3.83;2.60;;;;;;;;;;6247200;28;20202;-55
2023/04/01 07:14:42;;;;;;;3.50;2.50;;;;;;;;;;6262073;28;20206;-57
2023/04/01 07:17:44;;;;;;;3.57;2.07;;;;;;;;;;6239401;28;20307;-56
2023/04/01 07:20:46;;;;;;;2.37;2.13;;;;;;;;;;6241367;28;20195;-57
2023/04/01 07:23:48;;;;;;;6.20;3.03;;;;;;;;;;6259199;28;20290;-55
2023/04/01 07:26:53;;;;;;;2.40;2.20;;;;;;;;;;6227067;28;20198;-56
2023/04/01 07:29:56;;;;;;;2.37;2.00;;;;;;;;;;6269526;28;20213;-57
2023/04/01 07:33:04;;;;;;;3.23;2.00;;;;;;;;;;6247998;28;20244;-58
2023/04/01 07:36:15;;;;;;;3.37;2.00;;;;;;;;;;6259690;28;20218;-61
2023/04/01 07:39:16;;;;;;;3.07;2.23;;;;;;;;;;6249364;28;20191;-61
2023/04/01 07:42:36;;;;;;;2.30;1.87;;;;;;;;;;6264212;28;20194;-61
2023/04/01 07:45:37;;;;;;;2.90;2.17;;;;;;;;;;6262551;28;20285;-61
2023/04/01 07:48:54;;;;;;;4.07;2.30;;;;;;;;;;6253217;28;20190;-57
2023/04/01 07:52:15;;;;;;;3.80;2.27;;;;;;;;;;6252030;28;20202;-58
2023/04/01 07:55:20;;;;;;;1.93;1.80;;;;;;;;;;6246510;28;20230;-58
2023/04/01 07:58:27;;;;;;;2.27;1.83;;;;;;;;;;6263479;28;20179;-58
2023/04/01 08:01:40;;;;;;;1.83;1.50;;;;;;;;;;6243228;28;20185;-58
2023/04/01 08:04:50;;;;;;;2.00;1.20;;;;;;;;;;6263608;28;20237;-58
2023/04/01 08:07:51;;;;;;;1.70;1.60;;;;;;;;;;6242985;28;20194;-58
2023/04/01 08:10:55;;;;;;;1.87;1.60;;;;;;;;;;6246790;28;20182;-58
2023/04/01 08:14:15;;;;;;;1.27;1.00;;;;;;;;;;6233783;28;20202;-57
2023/04/01 08:17:19;;;;;;;3.83;1.60;;;;;;;;;;6257884;28;20225;-57
2023/04/01 08:20:28;;;;;;;3.67;1.20;;;;;;;;;;6243938;28;20194;-58
2023/04/01 08:23:31;;;;;;;2.37;1.00;;;;;;;;;;6239558;28;20201;-58
2023/04/01 08:26:36;;;;;;;1.40;1.00;;;;;;;;;;6242177;28;20261;-59
2023/04/01 08:29:37;;;;;;;1.77;1.10;;;;;;;;;;6251120;28;20187;-58
2023/04/01 08:32:40;;;;;;;0.90;0.90;;;;;;;;;;6243304;28;20226;-59
2023/04/01 08:35:41;;;;;;;1.13;1.03;;;;;;;;;;6245648;28;20222;-56
2023/04/01 08:38:48;;;;;;;1.57;1.03;;;;;;;;;;6247254;28;20282;-57
2023/04/01 08:41:57;;;;;;;1.30;1.00;;;;;;;;;;6247928;28;20191;-58
2023/04/01 08:45:16;;;;;;;1.83;0.90;;;;;;;;;;6244023;28;20278;-57
2023/04/01 08:48:29;;;;;;;2.80;0.90;;;;;;;;;;6230632;28;20259;-57
2023/04/01 08:51:36;;;;;;;1.20;1.10;;;;;;;;;;6242260;28;20198;-58
2023/04/01 08:54:55;;;;;;;1.23;0.73;;;;;;;;;;6249875;28;20307;-57
2023/04/01 08:58:04;;;;;;;1.90;1.30;;;;;;;;;;6239692;28;20192;-57
2023/04/01 09:01:08;;;;;;;1.73;1.20;;;;;;;;;;6245283;28;20210;-57
2023/04/01 09:04:19;;;;;;;1.70;1.40;;;;;;;;;;6249820;28;20196;-57
2023/04/01 09:07:29;;;;;;;2.83;2.10;;;;;;;;;;6242209;28;20202;-57
2023/04/01 09:10:30;;;;;;;5.80;2.90;;;;;;;;;;6236500;28;20286;-57
2023/04/01 09:13:40;;;;;;;2.47;2.27;;;;;;;;;;6251818;28;20193;-57
2023/04/01 09:16:44;;;;;;;2.60;2.40;;;;;;;;;;6252075;28;20221;-57
2023/04/01 09:20:06;;;;;;;4.00;2.17;;;;;;;;;;6245558;28;20246;-57
2023/04/01 09:23:13;;;;;;;1.97;1.77;;;;;;;;;;6242064;28;20188;-56
2023/04/01 09:26:20;;;;;;;2.73;2.23;;;;;;;;;;6237699;28;20202;-57
2023/04/01 09:29:24;;;;;;;1.93;1.77;;;;;;;;;;6242788;28;20283;-57
2023/04/01 09:32:44;;;;;;;4.27;1.53;;;;;;;;;;6244338;28;20242;-57
2023/04/01 09:35:50;;;;;;;2.60;1.10;;;;;;;;;;6243459;28;20215;-56
2023/04/01 09:38:55;;;;;;;2.23;1.23;;;;;;;;;;6228398;28;20208;-56
2023/04/01 09:42:02;;;;;;;1.53;1.00;;;;;;;;;;6245356;28;20188;-55
2023/04/01 09:45:17;;;;;;;0.93;0.83;;;;;;;;;;6246031;28;20246;-57
2023/04/01 09:48:30;;;;;;;0.87;0.73;;;;;;;;;;6245605;28;20193;-55
2023/04/01 09:51:41;;;;;;;0.70;0.70;;;;;;;;;;6242045;28;20191;-58
2023/04/01 09:54:48;;;;;;;1.60;1.03;;;;;;;;;;6246592;28;20279;-56
2023/04/01 09:57:49;;;;;;;2.53;0.97;;;;;;;;;;6243126;28;20235;-56
2023/04/01 10:01:02;;;;;;;1.13;0.63;;;;;;;;;;6242637;28;20187;-56
2023/04/01 10:04:22;;;;;;;1.73;0.80;;;;;;;;;;6238593;28;20198;-56
2023/04/01 10:07:26;;;;;;;0.70;0.70;;;;;;;;;;6240065;28;20211;-57
2023/04/01 10:10:33;;;;;;;0.50;0.50;;;;;;;;;;6242495;28;20199;-57
2023/04/01 10:13:40;;;;;;;2.07;1.20;;;;;;;;;;6249771;28;20191;-57
2023/04/01 10:17:00;;;;;;;3.10;1.50;;;;;;;;;;6261741;28;20218;-57
2023/04/01 10:20:04;;;;;;;1.17;1.10;;;;;;;;;;6249453;28;20203;-56
2023/04/01 10:23:11;;;;;;;2.03;0.67;;;;;;;;;;6226794;28;20283;-57
2023/04/01 10:26:21;;;;;;;0.20;0.20;;;;;;;;;;6239709;28;20246;-56
2023/04/01 10:29:31;;;;;;;0.20;0.20;;;;;;;;;;6241886;28;20203;-56
2023/04/01 10:32:45;;;;;;;0.20;0.20;;;;;;;;;;6238636;28;20228;-56
2023/04/01 10:36:01;;;;;;;0.30;0.30;;;;;;;;;;6241976;28;20220;-56
2023/04/01 10:39:02;;;;;;;0.30;0.30;;;;;;;;;;6240600;28;20267;-57
2023/04/01 10:42:07;;;;;;;0.30;0.30;;;;;;;;;;6241890;28;20187;-56
2023/04/01 10:45:08;;;;;;;0.40;0.40;;;;;;;;;;6245002;28;20192;-55
2023/04/01 10:48:12;;;;;;;0.50;0.40;;;;;;;;;;6245833;28;20230;-56
2023/04/01 10:51:25;;;;;;;0.40;0.37;;;;;;;;;;6247323;28;20199;-55
2023/04/01 10:54:32;;;;;;;1.50;1.20;;;;;;;;;;6240700;28;20284;-55
2023/04/01 10:57:36;;;;;;;1.00;0.60;;;;;;;;;;6259348;28;20273;-55
2023/04/01 11:00:37;;;;;;;0.70;0.30;;;;;;;;;;6249377;28;20198;-56
2023/04/01 11:04:09;;;;;;;0.40;0.40;;;;;;;;;;6234497;28;20260;-56
2023/04/01 11:07:17;;;;;;;0.27;0.27;;;;;;;;;;6243254;28;20200;-53
2023/04/01 11:10:36;;;;;;;0.30;0.30;;;;;;;;;;6261116;28;20199;-56
2023/04/01 11:13:37;;;;;;;0.23;0.23;;;;;;;;;;6240722;28;20221;-55
2023/04/01 11:16:45;;;;;;;0.30;0.30;;;;;;;;;;6239667;28;20210;-56
2023/04/01 11:19:49;;;;;;;1.63;0.40;;;;;;;;;;6244324;28;20187;-56
2023/04/01 11:22:53;;;;;;;0.70;0.50;;;;;;;;;;6247204;28;20223;-56
2023/04/01 11:26:03;;;;;;;0.20;0.20;;;;;;;;;;6236083;28;20196;-55
2023/04/01 11:29:38;;;;;;;0.40;0.40;;;;;;;;;;6260158;28;20289;-55
2023/04/01 11:32:45;;;;;;;0.33;0.33;;;;;;;;;;6230966;28;20238;-56
2023/04/01 11:35:54;;;;;;;0.20;0.20;;;;;;;;;;6288016;28;20218;-56
2023/04/01 11:38:58;;;;;;;0.90;0.20;;;;;;;;;;6288564;28;20193;-56
2023/04/01 11:42:17;;;;;;;3.20;0.50;;;;;;;;;;6288334;28;20182;-55
2023/04/01 11:45:29;;;;;;;0.40;0.40;;;;;;;;;;6287941;28;20193;-55
2023/04/01 11:48:30;;;;;;;0.20;0.20;;;;;;;;;;6265106;28;20210;-56
2023/04/01 11:51:44;;;;;;;0.30;0.30;;;;;;;;;;6286709;28;20193;-56
2023/04/01 11:55:04;;;;;;;0.40;0.40;;;;;;;;;;6286834;28;20202;-57
2023/04/01 11:58:14;;;;;;;0.37;0.30;;;;;;;;;;6270756;28;20630;-57
2023/04/01 12:01:19;;;;;;;0.63;0.20;;;;;;;;;;6263675;28;20195;-56
2023/04/01 12:04:23;;;;;;;0.30;0.20;;;;;;;;;;6261947;28;20185;-56
2023/04/01 12:07:30;;;;;;;0.40;0.20;;;;;;;;;;6262406;28;20194;-56
2023/04/01 12:10:47;;;;;;;0.67;0.30;;;;;;;;;;6288050;28;20221;-56
2023/04/01 12:13:51;;;;;;;0.53;0.10;;;;;;;;;;6276886;28;20187;-55
2023/04/01 12:16:59;;;;;;;0.37;0.37;;;;;;;;;;6270004;28;20206;-56
2023/04/01 12:20:12;;;;;;;0.40;0.40;;;;;;;;;;6267000;28;20197;-56
2023/04/01 12:23:43;;;;;;;0.40;0.40;;;;;;;;;;6270899;28;20178;-56
2023/04/01 12:27:02;;;;;;;0.80;0.73;;;;;;;;;;6258783;28;20194;-57
2023/04/01 12:30:03;;;;;;;0.30;0.30;;;;;;;;;;6250529;28;20218;-55
2023/04/01 12:33:17;;;;;;;0.80;0.60;;;;;;;;;;6287538;28;20253;-56
2023/04/01 12:36:21;;;;;;;0.33;0.30;;;;;;;;;;6270590;28;20214;-56
2023/04/01 12:39:22;;;;;;;0.40;0.30;;;;;;;;;;6270886;28;20193;-57
2023/04/01 12:42:35;;;;;;;1.70;0.50;;;;;;;;;;6262509;28;20237;-57
2023/04/01 12:45:36;;;;;;;1.40;0.30;;;;;;;;;;6272325;28;20273;-57
2023/04/01 12:48:58;;;;;;;0.30;0.30;;;;;;;;;;6287525;28;20198;-56
2023/04/01 12:52:19;;;;;;;0.20;0.20;;;;;;;;;;6230887;28;20290;-56
2023/04/01 12:55:24;;;;;;;0.33;0.33;;;;;;;;;;6261004;28;20305;-55
2023/04/01 12:58:28;;;;;;;0.23;0.23;;;;;;;;;;6286644;28;20195;-56
2023/04/01 13:01:50;;;;;;;0.40;0.20;;;;;;;;;;6285267;28;20190;-56
2023/04/01 13:05:10;;;;;;;0.20;0.20;;;;;;;;;;6291194;28;20261;-55
2023/04/01 13:08:20;;;;;;;0.40;0.20;;;;;;;;;;6281087;28;20215;-53
2023/04/01 13:11:40;;;;;;;0.30;0.20;;;;;;;;;;6271385;28;20184;-57
2023/04/01 13:15:00;;;;;;;0.60;0.40;;;;;;;;;;6304382;28;20202;-56
2023/04/01 13:18:08;;;;;;;0.33;0.33;;;;;;;;;;6278304;28;20195;-56
2023/04/01 13:21:09;;;;;;;0.40;0.37;;;;;;;;;;6276026;28;20187;-56
2023/04/01 13:24:22;;;;;;;0.30;0.30;;;;;;;;;;6274556;28;20223;-56
2023/04/01 13:27:36;;;;;;;0.30;0.30;;;;;;;;;;6275295;28;20195;-56
2023/04/01 13:30:43;;;;;;;0.30;0.10;;;;;;;;;;6291820;28;20193;-56
2023/04/01 13:33:56;;;;;;;0.63;0.30;;;;;;;;;;6274751;28;20244;-57
2023/04/01 13:37:09;;;;;;;0.47;0.40;;;;;;;;;;6273220;28;20210;-56
2023/04/01 13:40:29;;;;;;;2.07;0.47;;;;;;;;;;6261600;28;20188;-56
2023/04/01 13:43:42;;;;;;;0.40;0.40;;;;;;;;;;6275808;28;20186;-55
2023/04/01 13:47:02;;;;;;;0.27;0.27;;;;;;;;;;6275627;28;20195;-56
2023/04/01 13:50:20;;;;;;;0.60;0.57;;;;;;;;;;6291160;28;20184;-56
2023/04/01 13:53:40;;;;;;;0.30;0.30;;;;;;;;;;6277223;28;20186;-56
2023/04/01 13:57:04;;;;;;;0.40;0.40;;;;;;;;;;6290618;28;20229;-56
2023/04/01 14:00:20;;;;;;;0.20;0.20;;;;;;;;;;6290335;28;20182;-57
2023/04/01 14:03:32;;;;;;;0.20;0.20;;;;;;;;;;6272685;28;20194;-57
2023/04/01 14:06:52;;;;;;;0.20;0.20;;;;;;;;;;6277481;28;20239;-57
2023/04/01 14:10:07;;;;;;;0.30;0.30;;;;;;;;;;6274020;28;20194;-57
2023/04/01 14:13:32;;;;;;;0.33;0.20;;;;;;;;;;6274128;28;20183;-56
2023/04/01 14:16:33;;;;;;;0.70;0.37;;;;;;;;;;6261851;28;20225;-57
2023/04/01 14:19:47;;;;;;;0.30;0.30;;;;;;;;;;6290378;28;20186;-56
2023/04/01 14:23:07;;;;;;;0.30;0.30;;;;;;;;;;6290413;28;20186;-57
2023/04/01 14:26:22;;;;;;;0.23;0.23;;;23.90;29.00;;;;;;6274549;28;20189;-55
2023/04/01 14:29:39;;;;;;;0.37;0.27;;;23.30;28.30;;;;;;6260767;28;20196;-55
2023/04/01 14:32:56;;;;;;;0.20;0.20;;;22.70;28.80;;;;;;6290146;28;20307;-57
2023/04/01 14:36:28;;;;;;;0.40;0.30;;;22.70;29.60;;;;;;6271240;28;20263;-57
2023/04/01 14:39:51;;;;;;;0.40;0.30;;;22.90;30.30;;;;;;6305554;28;20187;-57
2023/04/01 14:43:08;;;;;;;0.37;0.30;;;23.40;30.70;;;;;;6278840;28;20213;-57
2023/04/01 14:46:29;;;;;;;0.40;0.40;;;23.90;29.30;;;;;;6272878;28;20190;-57
2023/04/01 14:49:35;;;;;;;0.30;0.30;;;23.80;29.20;;;;;;6232863;28;20206;-57
2023/04/01 14:52:40;;;;;;;0.30;0.30;;;23.50;29.80;;;;;;6274061;28;20190;-55
2023/04/01 14:55:43;;;;;;;0.30;0.30;;;23.40;30.20;;;;;;6272920;28;20213;-57
2023/04/01 14:58:46;;;;;;;0.20;0.20;;;23.30;29.80;;;;;;6262593;28;20186;-57
2023/04/01 15:02:12;;;;;;;0.53;0.53;;;23.00;27.80;;;;;;6277566;28;20187;-57
2023/04/01 15:05:50;;;;;;;0.70;0.47;;;22.90;29.30;;;;;;6290050;28;20187;-57
2023/04/01 15:09:27;;;;;;;0.73;0.30;;;22.80;28.30;;;;;;6280400;28;20191;-57
2023/04/01 15:12:44;;;;;;;2.47;0.57;;;23.10;31.00;;;;;;6296242;28;20272;-55
2023/04/01 15:15:57;;;;;;;1.00;0.70;;;24.20;29.10;;;;;;6258937;28;20218;-57
2023/04/01 15:19:10;;;;;;;0.50;0.40;;;24.40;27.20;;;;;;6272745;28;20183;-55
2023/04/01 15:22:42;;;;;;;0.97;0.30;;;24.80;28.60;;;;;;6273353;28;20206;-55
2023/04/01 15:25:55;;;;;;;0.27;0.27;;;;;;;;;;6272411;28;20198;-56
2023/04/01 15:29:20;;;;;;;1.23;0.40;;;;;;;;;;6289857;28;20202;-56
2023/04/01 15:32:21;;;;;;;0.50;0.20;;;;;;;;;;6267197;28;20234;-56
2023/04/01 15:35:41;;;;;;;0.40;0.20;;;;;;;;;;6289147;28;20294;-55
2023/04/01 15:39:10;;;;;;;0.30;0.30;;;;;;;;;;6288750;28;20178;-57
2023/04/01 15:42:34;;;;;;;0.87;0.50;;;;;;;;;;6267515;28;20178;-58
2023/04/01 15:46:13;;;;;;;0.50;0.30;;;25.50;28.20;;;;;;6262929;28;20277;-57
2023/04/01 15:49:57;;;;;;;0.40;0.40;;;22.10;30.20;;;;;;6272353;28;20196;-57
2023/04/01 15:53:42;;;;;;;0.40;0.40;;;21.30;31.60;;;;;;6264342;28;20205;-57
2023/04/01 15:56:42;;;;;;;1.67;0.67;;;20.50;32.60;;;;;;6248340;28;20241;-56
2023/04/01 16:00:19;;;;;;;2.07;0.43;;;;;;;;;;6264566;28;20196;-56
2023/04/01 16:03:40;;;;;;;1.20;0.57;;;;;;;;;;6186246;28;20330;-56
2023/04/01 16:06:54;;;;;;;0.50;0.47;;;;;;;;;;6282175;28;20178;-55
2023/04/01 16:10:04;;;;;;;0.87;0.43;;;;;;;;;;6283462;28;20281;-55
2023/04/01 16:13:36;;;;;;;0.57;0.50;;;20.10;34.10;;;;;;6273198;28;20174;-56
2023/04/01 16:17:07;;;;;;;0.90;0.63;;;18.00;37.90;;;;;;6271526;28;20210;-56
2023/04/01 16:20:20;;;;;;;2.73;0.40;;;17.80;39.80;;;;;;6283468;28;20265;-55
2023/04/01 16:23:26;;;;;;;0.40;0.40;;;17.40;41.20;;;;;;6271936;28;20202;-56
2023/04/01 16:26:57;;;;;;;0.40;0.40;;;17.10;41.50;;;;;;6285111;28;20186;-55
2023/04/01 16:30:55;;;;;;;0.40;0.40;;;16.80;41.70;;;;;;6241006;28;20198;-57
2023/04/01 16:34:21;;;;;;;0.80;0.60;;;16.50;42.60;;;;;;6192918;28;20239;-55
2023/04/01 16:37:48;;;;;;;1.30;0.60;;;16.20;42.50;;;;;;6204636;28;20692;-57
2023/04/01 16:41:07;;;;;;;0.87;0.37;;;;;;;;;;6273683;28;20190;-55
2023/04/01 16:44:21;;;;;;;0.30;0.30;;;;;;;;;;6294110;28;20197;-56
2023/04/01 16:47:27;;;;;;;2.03;0.50;;;;;;;;;;6278336;28;20238;-55
2023/04/01 16:50:39;;;;;;;0.73;0.50;;;;;;;;;;6293749;28;20186;-56
2023/04/01 16:53:48;;;;;;;0.67;0.30;;;;;;;;;;6294073;28;20267;-56
2023/04/01 16:56:51;;;;;;;1.17;0.40;;;;;;;;;;6291692;28;20213;-55
2023/04/01 17:00:00;;;;;;;0.60;0.40;;;;;;;;;;6293643;28;20194;-56
2023/04/01 17:03:07;;;;;;;0.57;0.33;;;16.00;43.00;;;;;;6293740;28;20183;-56
2023/04/01 17:06:17;;;;;;;0.40;0.40;;;14.60;45.80;;;;;;6276582;28;20280;-56
2023/04/01 17:09:21;;;;;;;0.97;0.23;;;14.60;45.90;;;;;;6272671;28;20207;-56
2023/04/01 17:12:27;;;;;;;1.43;0.40;;;14.40;47.30;;;;;;6292919;28;20216;-56
2023/04/01 17:15:59;;;;;;;1.40;0.50;;;14.30;47.50;;;;;;6276481;28;20305;-55
2023/04/01 17:19:26;;;;;;;2.50;0.70;;;14.20;47.40;;;;;;6265240;28;20195;-55
2023/04/01 17:22:40;;;;;;;2.17;1.17;;;14.20;46.60;;;;;;6307106;28;20190;-56
2023/04/01 17:26:00;;;;;;;1.60;1.30;;;14.20;46.40;;;;;;6275989;28;20194;-56
2023/04/01 17:29:35;;;;;;;2.77;1.90;;;14.10;47.50;;;;;;6277593;28;20186;-54
2023/04/01 17:32:41;;;;;;;4.57;3.00;;;;;;;;;;6275517;28;20237;-58
2023/04/01 17:35:59;;;;;;;5.50;2.90;;;;;;;;;;6275981;28;20240;-58
2023/04/01 17:39:19;;;;;;;4.70;2.30;;;;;;;;;;6288046;28;20190;-58
2023/04/01 17:42:39;;;;;;;10.00;5.00;;;;;;;;;;6275927;28;20179;-57
2023/04/01 17:45:46;;;;;;;12.37;5.97;;;;;;;;;;6277034;28;20225;-58
2023/04/01 17:48:57;;;;;;;10.00;4.77;;;;;;;;;;6265481;28;20273;-57
2023/04/01 17:52:13;;;;;;;9.67;5.53;;;;;;;;;;6276105;28;20198;-57
2023/04/01 17:55:21;;;;;;;9.70;5.90;;;;;;;;;;6272483;28;20274;-57
2023/04/01 17:58:27;;;;;;;8.50;6.43;;;;;;;;;;6266621;28;20199;-57
2023/04/01 18:01:50;;;;;;;6.07;3.60;;;;;;;;;;6302611;28;20196;-57
2023/04/01 18:05:01;;;;;;;4.70;2.70;;;;;;;;;;6283879;28;20186;-58
2023/04/01 18:08:04;;;;;;;3.17;2.30;;;;;;;;;;6268818;28;20193;-57
2023/04/01 18:11:23;;;;;;;2.53;1.93;;;;;;;;;;6274791;28;20194;-58
2023/04/01 18:14:25;;;;;;;2.53;1.90;;;;;;;;;;6279337;28;20195;-59
2023/04/01 18:17:45;;;;;;;1.30;0.70;;;;;;;;;;6292135;28;20206;-60
2023/04/01 18:21:01;;;;;;;1.50;0.70;;;;;;;;;;6292143;28;20217;-59
2023/04/01 18:24:15;;;;;;;0.87;0.80;;;;;;;;;;6281896;28;20183;-59
2023/04/01 18:27:24;;;;;;;1.63;0.87;;;;;;;;;;6291338;28;20183;-58
2023/04/01 18:30:32;;;;;;;0.60;0.60;;;;;;;;;;6291959;28;20182;-59
2023/04/01 18:33:42;;;;;;;0.77;0.70;;;;;;;;;;6291435;28;20245;-59